• Join FlightAware (Why Join?)
  • Login
  • US Flag 
08:27PM EDT


 

Airport Tracker/Info


-or-


 

Live Flight TrackerFlight Track Log ✈ SKW6290 ✈ 22-Sep-2013 ✈ KSFO - KPSP

Flight Track Log - Related Links

Times and Time Zones

All times are in EDT time to prevent confusion due to time zone crossing. See the SKW6290 flight status page for this flight to view local times or setup timezone preferences in your user account.

Time Position Orientation Groundspeed Altitude Reporting Facility
EDT Latitude Longitude Course Direction KTS MPH feet Rate Location/Type
07:33PM 37.6500 -122.3667 131° Southeast 167 192 1,500  Level Northern Cal TRACON
07:34PM 37.7000 -122.3833 345° North 235 270 3,700 2,280 Climbing Northern Cal TRACON
07:35PM 37.7136 -122.4497 285° West 249 287 5,700 2,460 Climbing Oakland Center
07:36PM 37.2842 -121.8139 122° Southeast  Level Estimated
07:36PM 37.6550 -122.5064 217° Southwest 292 336 8,400  Level Oakland Center
07:37PM 37.2001 -121.6744 122° Southeast  Level Estimated
07:37PM 37.5697 -122.4797 166° South 315 362 10,900  Level Oakland Center
07:38PM 37.1158 -121.5352 131° Southeast  Level Estimated
07:38PM 37.4786 -122.4469 164° South 332 382 12,300  Level Oakland Center
07:39PM 37.4097 -122.3533 133° Southeast 360 414 14,500 1,980 Climbing Oakland Center
07:40PM 37.3331 -122.2303 128° Southeast 371 427 16,400 1,680 Climbing Oakland Center
07:41PM 37.2683 -122.1242 127° Southeast 381 438 18,000 1,200 Climbing Oakland Center
07:42PM 37.2014 -122.0164 128° Southeast 392 451 19,000 900 Climbing Oakland Center
07:43PM 37.1319 -121.9017 127° Southeast 411 473 19,900 900 Climbing Oakland Center
07:44PM 37.0597 -121.7861 128° Southeast 421 484 20,900 480 Climbing Oakland Center
07:45PM 36.9872 -121.6714 128° Southeast 422 486 21,000  Climbing Oakland Center
07:46PM 36.9164 -121.5561 128° Southeast 419 482 21,000  Level Oakland Center
07:47PM 36.8333 -121.4183 127° Southeast 417 480 21,000  Level Oakland Center
07:48PM 36.7633 -121.3111 129° Southeast 414 476 21,000  Level Oakland Center
07:49PM 36.6919 -121.1992 128° Southeast 414 476 21,000 60 Level Oakland Center
07:50PM 36.6222 -121.0825 127° Southeast 417 480 21,200 480 Climbing Oakland Center
07:51PM 36.5478 -120.9689 129° Southeast 422 486 22,100 840 Climbing Oakland Center
07:52PM 36.4719 -120.8500 128° Southeast 433 498 23,000 960 Climbing Oakland Center
07:53PM 36.3808 -120.7058 128° Southeast 442 509 24,200 1,020 Climbing Oakland Center
07:54PM 36.3036 -120.5847 128° Southeast 446 513 25,100 840 Climbing Oakland Center
07:55PM 36.2261 -120.4625 128° Southeast 449 517 26,000 720 Climbing Oakland Center
07:56PM 36.1486 -120.3414 128° Southeast 448 516 26,700 480 Climbing Oakland Center
07:57PM 36.0686 -120.2169 128° Southeast 456 525 27,000 120 Climbing Oakland Center
07:58PM 35.9847 -120.0892 129° Southeast 470 541 27,000  Level Oakland Center
07:59PM 35.9011 -119.9594 128° Southeast 477 549 27,000  Level Oakland Center
08:00PM 35.8167 -119.8294 129° Southeast 481 554 27,000  Level Los Angeles Center
08:01PM 35.7314 -119.6989 129° Southeast 485 558 27,000  Level Los Angeles Center
08:02PM 35.6306 -119.5467 129° Southeast 481 554 27,000  Level Oakland Center
08:03PM 35.5450 -119.4164 129° Southeast 482 555 27,000  Level Los Angeles Center
08:04PM 35.4603 -119.2894 129° Southeast 481 554 27,000  Level Los Angeles Center
08:06PM 35.3753 -119.1622 129° Southeast 481 554 27,000  Level Los Angeles Center
08:07PM 35.2906 -119.0342 129° Southeast 483 556 27,000  Level Los Angeles Center
08:08PM 35.2058 -118.9089 130° Southeast 480 552 27,000 -120 Level Los Angeles Center
08:09PM 35.1050 -118.7564 129° Southeast 481 554 26,800 -600 Descending Los Angeles Center
08:10PM 35.0183 -118.6303 130° Southeast 482 555 25,800 -1,020 Descending Los Angeles Center
08:11PM 34.9325 -118.5056 130° Southeast 482 555 24,800 -900 Descending Los Angeles Center
08:12PM 34.8547 -118.3914 130° Southeast 479 551 24,000 -1,140 Descending Los Angeles Center
08:13PM 34.7528 -118.2433 130° Southeast 478 550 22,500 -2,220 Descending Los Angeles Center
08:14PM 34.6694 -118.1219 130° Southeast 474 545 19,500 -2,400 Descending Los Angeles Center
08:15PM 34.5994 -117.9956 124° Southeast 460 529 17,600 -1,020 Descending Los Angeles Center
08:16PM 34.5308 -117.8467 119° Southeast 427 491 17,200 -180 Descending Los Angeles Center
08:17PM 34.4744 -117.7242 119° Southeast 420 483 17,200  Level Los Angeles Center
08:18PM 34.4058 -117.5742 119° Southeast 428 493 17,200 -120 Level Los Angeles Center
08:19PM 34.3525 -117.4575 119° Southeast 422 486 17,000 -120 Descending Los Angeles Center
08:20PM 34.2936 -117.3308 119° Southeast 430 495 17,000 -120 Level Los Angeles Center
08:21PM 34.2353 -117.2056 119° Southeast 428 493 16,800 -720 Descending Los Angeles Center
08:22PM 34.1797 -117.0886 120° Southeast 392 451 15,600 -1,200 Descending Los Angeles Center
08:23PM 34.1214 -116.9619 119° Southeast 372 428 14,300 -780 Descending Los Angeles Center
08:24PM 34.0678 -116.8450 119° Southeast 366 421 14,100 -180 Descending Los Angeles Center
08:25PM 34.0261 -116.7564 120° Southeast 314 361 14,000 -1,500 Descending Los Angeles Center
08:26PM 33.9833 -116.6681 120° Southeast 308 354 11,100 -2,700 Descending Los Angeles Center
08:27PM 33.9453 -116.5808 118° Southeast 298 343 8,500 -2,160 Descending Los Angeles Center
08:29PM 33.9078 -116.4850 115° Southeast 292 336 6,700 -1,860 Descending Los Angeles Center
08:31PM 33.8000 -116.4000 147° Southeast 194 223 2,600 -1,560 Descending Southern California TRACON
08:32PM 33.7833 -116.4500 248° West 153 176 1,600 -900 Descending Southern California TRACON
08:33PM 33.8167 -116.4833 320° Northwest 139 160 800 -840 Descending Southern California TRACON